Time;durP1;ratioP1;P1;durP2;ratioP2;P2;SDS_P1;SDS_P2;PMS_P1;PMS_P2;Temp;Humidity;BMP_temperature;BMP_pressure;BME280_temperature;BME280_humidity;BME280_pressure;Samples;Min_cycle;Max_cycle;Signal;HPM_P1;HPM_P2
2022/09/09 09:19:24;;;;;;;8.02;1.73;;;;;;;;;;631777;222;33467;-65
2022/09/09 09:21:52;;;;;;;3.28;1.95;;;;;;;;;;615271;230;26687;-65
2022/09/09 09:24:21;;;;;;;3.05;1.65;;;;;;;;;;610594;235;26592;-65
2022/09/09 09:26:50;;;;;;;3.05;1.58;;;;;;;;;;610609;231;26556;-65
2022/09/09 09:29:19;;;;;;;2.08;1.33;;;;;;;;;;604637;235;26593;-66
2022/09/09 09:31:48;;;;;;;2.30;1.52;;;;;;;;;;601913;239;26833;-65
2022/09/09 09:34:17;;;;;;;3.42;1.87;;;;;;;;;;601906;239;26832;-66
2022/09/09 09:36:47;;;;;;;6.62;2.00;;;;;;;;;;605735;235;26595;-64
2022/09/09 09:39:22;;;;;;;7.10;2.17;;;;;;;;;;609809;236;26686;-65
2022/09/09 09:41:51;;;;;;;4.20;1.90;;;;;;;;;;610111;236;26661;-64
2022/09/09 09:44:26;;;;;;;65.57;12.75;;;;;;;;;;609589;236;26655;-64
2022/09/09 09:47:01;;;;;;;81.47;19.75;;;;;;;;;;609587;236;26979;-64
2022/09/09 09:49:30;;;;;;;121.20;28.77;;;;;;;;;;609689;236;26854;-64
2022/09/09 09:52:00;;;;;;;113.68;26.40;;;;;;;;;;609662;236;26652;-63
2022/09/09 09:54:44;;;;;;;94.30;19.90;;;;;;;;;;609194;235;26864;-64
2022/09/09 09:57:13;;;;;;;68.62;16.98;;;;;;;;;;608240;231;26648;-66
2022/09/09 09:59:42;;;;;;;47.42;11.77;;;;;;;;;;610070;235;26629;-66
2022/09/09 10:02:16;;;;;;;32.22;9.18;;;;;;;;;;609666;236;26879;-64
2022/09/09 10:04:45;;;;;;;40.15;12.35;;;;;;;;;;603001;236;26659;-66
2022/09/09 10:07:22;;;;;;;28.38;7.62;;;;;;;;;;601393;239;26658;-66
2022/09/09 10:09:52;;;;;;;19.37;7.37;;;;;;;;;;602860;236;26624;-66
2022/09/09 10:12:22;;;;;;;9.52;3.80;;;;;;;;;;606794;236;26644;-67
2022/09/09 10:14:56;;;;;;;9.60;3.45;;;;;;;;;;601074;239;27007;-66
2022/09/09 10:17:45;;;;;;;9.00;3.05;;;;;;;;;;601617;239;26567;-65
2022/09/09 10:20:16;;;;;;;7.40;2.60;;;;;;;;;;600680;237;26584;-65
2022/09/09 10:22:45;;;;;;;9.65;2.78;;;;;;;;;;606347;236;26820;-65
2022/09/09 10:25:19;;;;;;;12.02;3.62;;;;;;;;;;609980;236;26583;-65
2022/09/09 10:27:54;;;;;;;17.58;5.28;;;;;;;;;;610259;235;26664;-65
2022/09/09 10:30:23;;;;;;;17.83;5.50;;;;;;;;;;604402;233;26644;-65
2022/09/09 10:32:52;;;;;;;13.25;4.40;;;;;;;;;;602267;239;26604;-65
2022/09/09 10:35:26;;;;;;;10.38;3.70;;;;;;;;;;601439;239;26630;-65
2022/09/09 10:38:01;;;;;;;12.60;3.45;;;;;;;;;;602030;239;26825;-66
2022/09/09 10:40:36;;;;;;;5.57;2.85;;;;;;;;;;612053;235;26647;-65
2022/09/09 10:43:19;;;;;;;4.25;2.45;;;;;;;;;;612061;235;26911;-65
2022/09/09 10:45:49;;;;;;;6.72;2.50;;;;;;;;;;597549;235;26669;-66
2022/09/09 10:48:19;;;;;;;4.97;2.17;;;;;;;;;;611821;235;26658;-65
2022/09/09 10:50:47;;;;;;;5.75;2.20;;;;;;;;;;611609;235;26825;-65
2022/09/09 10:53:17;;;;;;;6.90;2.22;;;;;;;;;;611909;235;26618;-65
2022/09/09 10:55:46;;;;;;;3.97;1.75;;;;;;;;;;612120;235;26678;-65
2022/09/09 10:58:17;;;;;;;5.20;1.50;;;;;;;;;;612207;235;26666;-64
2022/09/09 11:00:46;;;;;;;2.62;1.27;;;;;;;;;;605481;235;26671;-64
2022/09/09 11:03:20;;;;;;;2.55;1.50;;;;;;;;;;601435;239;27154;-64
2022/09/09 11:05:49;;;;;;;3.03;1.50;;;;;;;;;;601175;239;26647;-64
2022/09/09 11:08:19;;;;;;;1.58;1.20;;;;;;;;;;601013;239;26649;-64
2022/09/09 11:10:49;;;;;;;5.47;1.75;;;;;;;;;;601179;238;26636;-64
2022/09/09 11:13:20;;;;;;;2.25;1.60;;;;;;;;;;601442;239;26631;-64
2022/09/09 11:15:51;;;;;;;4.05;1.80;;;;;;;;;;601413;239;26659;-64
2022/09/09 11:18:19;;;;;;;4.53;1.70;;;;;;;;;;601568;239;26623;-64
2022/09/09 11:20:49;;;;;;;2.15;1.30;;;;;;;;;;601639;238;26625;-64
2022/09/09 11:23:18;;;;;;;3.15;1.73;;;;;;;;;;601356;239;26849;-64
2022/09/09 11:25:51;;;;;;;2.50;1.42;;;;;;;;;;601462;239;26617;-65
2022/09/09 11:28:33;;;;;;;2.17;1.60;;;;;;;;;;601484;239;26619;-65
2022/09/09 11:31:04;;;;;;;3.50;1.60;;;;;;;;;;596835;239;26813;-64
2022/09/09 11:33:45;;;;;;;2.72;1.67;;;;;;;;;;600830;239;26636;-64
2022/09/09 11:36:17;;;;;;;4.20;1.55;;;;;;;;;;600714;239;26979;-65
2022/09/09 11:38:46;;;;;;;2.55;1.60;;;;;;;;;;604169;235;27025;-65
2022/09/09 11:41:14;;;;;;;5.12;1.40;;;;;;;;;;612148;232;26663;-66
2022/09/09 11:43:43;;;;;;;5.10;2.10;;;;;;;;;;608861;234;26978;-65
2022/09/09 11:46:12;;;;;;;4.37;1.50;;;;;;;;;;606192;234;26633;-65
2022/09/09 11:48:45;;;;;;;1.85;1.25;;;;;;;;;;602686;235;26651;-65
2022/09/09 11:51:12;;;;;;;2.90;1.40;;;;;;;;;;609864;235;26858;-65
2022/09/09 11:53:48;;;;;;;3.42;1.50;;;;;;;;;;607604;235;26558;-65
2022/09/09 11:56:23;;;;;;;2.08;1.50;;;;;;;;;;604151;235;26606;-65
2022/09/09 11:58:58;;;;;;;2.47;1.70;;;;;;;;;;608822;236;26689;-65
2022/09/09 12:01:27;;;;;;;2.65;1.40;;;;;;;;;;606541;236;26619;-65
2022/09/09 12:04:01;;;;;;;2.20;1.30;;;;;;;;;;605832;236;26551;-66
2022/09/09 12:06:31;;;;;;;3.10;1.60;;;;;;;;;;610231;235;26842;-66
2022/09/09 12:09:06;;;;;;;2.65;1.62;;;;;;;;;;611924;235;26561;-66
2022/09/09 12:11:34;;;;;;;4.50;1.10;;;;;;;;;;604587;236;26636;-65
2022/09/09 12:14:03;;;;;;;3.10;1.50;;;;;;;;;;610684;231;26894;-65
2022/09/09 12:16:34;;;;;;;4.10;1.20;;;;;;;;;;612225;235;26587;-64
2022/09/09 12:19:04;;;;;;;3.60;1.20;;;;;;;;;;609654;236;26553;-64
2022/09/09 12:21:47;;;;;;;2.22;1.17;;;;;;;;;;607427;236;26849;-65
2022/09/09 12:24:16;;;;;;;2.75;1.10;;;;;;;;;;605129;236;26605;-66
2022/09/09 12:26:48;;;;;;;2.67;1.33;;;;;;;;;;602808;236;26618;-66
2022/09/09 12:29:20;;;;;;;2.42;1.12;;;;;;;;;;601547;237;26583;-65
2022/09/09 12:31:52;;;;;;;2.35;1.35;;;;;;;;;;609049;235;26689;-64
2022/09/09 12:34:21;;;;;;;3.03;1.37;;;;;;;;;;603298;236;26830;-64
2022/09/09 12:36:49;;;;;;;1.35;1.23;;;;;;;;;;609788;235;26600;-65
2022/09/09 12:39:18;;;;;;;3.67;1.20;;;;;;;;;;602767;236;26640;-64
2022/09/09 12:41:50;;;;;;;1.42;1.10;;;;;;;;;;605812;235;26645;-64
2022/09/09 12:44:19;;;;;;;3.55;1.25;;;;;;;;;;610802;235;26648;-65
2022/09/09 12:46:48;;;;;;;2.30;1.12;;;;;;;;;;611942;235;26591;-65
2022/09/09 12:49:18;;;;;;;2.67;1.27;;;;;;;;;;604312;236;26856;-63
2022/09/09 12:51:47;;;;;;;1.98;1.20;;;;;;;;;;601590;236;26667;-64
2022/09/09 12:54:16;;;;;;;2.45;1.10;;;;;;;;;;607933;235;26873;-64
2022/09/09 12:56:46;;;;;;;2.87;1.12;;;;;;;;;;604170;235;26570;-64
2022/09/09 12:59:20;;;;;;;1.27;1.12;;;;;;;;;;603536;235;26548;-64
2022/09/09 13:01:49;;;;;;;0.85;0.80;;;;;;;;;;607057;235;26605;-64
2022/09/09 13:04:18;;;;;;;1.67;1.10;;;;;;;;;;607246;235;26560;-64
2022/09/09 13:06:47;;;;;;;4.35;1.20;;;;;;;;;;603906;235;26590;-64
2022/09/09 13:09:16;;;;;;;1.73;1.25;;;;;;;;;;609263;236;26837;-64
2022/09/09 13:11:47;;;;;;;3.58;1.40;;;;;;;;;;605324;236;26631;-64
2022/09/09 13:14:19;;;;;;;2.05;1.15;;;;;;;;;;606038;236;26616;-63
2022/09/09 13:16:52;;;;;;;2.35;0.85;;;;;;;;;;606171;236;26602;-62
2022/09/09 13:19:21;;;;;;;5.78;1.52;;;;;;;;;;612102;234;26643;-62
2022/09/09 13:21:50;;;;;;;3.72;1.48;;;;;;;;;;610239;235;26607;-62
2022/09/09 13:24:26;;;;;;;1.77;1.33;;;;;;;;;;606324;236;26620;-63
2022/09/09 13:26:56;;;;;;;4.50;1.60;;;;;;;;;;608067;235;26673;-62
2022/09/09 13:29:24;;;;;;;2.28;1.12;;;;;;;;;;606595;235;26641;-62
2022/09/09 13:31:53;;;;;;;1.77;1.10;;;;;;;;;;606066;236;26640;-62
2022/09/09 13:34:28;;;;;;;2.12;1.15;;;;;;;;;;604409;236;26638;-63
2022/09/09 13:36:57;;;;;;;1.02;0.90;;;;;;;;;;608638;236;26639;-63
2022/09/09 13:39:25;;;;;;;2.03;1.08;;;;;;;;;;603273;236;26875;-63
2022/09/09 13:41:54;;;;;;;3.12;1.50;;;;;;;;;;610966;235;26604;-62
2022/09/09 13:44:24;;;;;;;2.80;1.37;;;;;;;;;;610047;235;26874;-62
2022/09/09 13:47:07;;;;;;;3.15;1.10;;;;;;;;;;609569;236;26589;-63
2022/09/09 13:49:36;;;;;;;2.00;1.30;;;;;;;;;;601556;234;26642;-62
2022/09/09 13:52:06;;;;;;;2.37;1.00;;;;;;;;;;601821;236;26888;-63
2022/09/09 13:54:34;;;;;;;4.65;1.52;;;;;;;;;;607787;236;26613;-63
2022/09/09 13:57:04;;;;;;;4.53;1.42;;;;;;;;;;609503;236;26550;-63
2022/09/09 13:59:31;;;;;;;2.87;1.30;;;;;;;;;;604116;236;26602;-63
2022/09/09 14:02:01;;;;;;;1.15;1.00;;;;;;;;;;606165;232;26622;-63
2022/09/09 14:04:30;;;;;;;2.28;1.20;;;;;;;;;;608808;233;26608;-63
2022/09/09 14:06:59;;;;;;;2.62;1.55;;;;;;;;;;604383;235;26598;-63
2022/09/09 14:09:27;;;;;;;8.45;1.60;;;;;;;;;;612007;234;26611;-62
2022/09/09 14:11:55;;;;;;;8.48;1.87;;;;;;;;;;612444;234;27042;-62
2022/09/09 14:14:25;;;;;;;7.37;1.55;;;;;;;;;;605237;235;26551;-63
2022/09/09 14:16:53;;;;;;;3.42;1.23;;;;;;;;;;609578;235;26835;-63
2022/09/09 14:19:22;;;;;;;1.83;1.30;;;;;;;;;;604262;235;26546;-63
2022/09/09 14:21:51;;;;;;;2.83;1.25;;;;;;;;;;608925;235;26825;-63
2022/09/09 14:24:20;;;;;;;2.90;1.12;;;;;;;;;;606217;236;26651;-63
2022/09/09 14:26:49;;;;;;;2.03;1.20;;;;;;;;;;608794;236;26585;-63
2022/09/09 14:29:17;;;;;;;2.00;1.17;;;;;;;;;;605867;235;26628;-63
2022/09/09 14:31:46;;;;;;;3.85;1.50;;;;;;;;;;606217;236;26598;-63
2022/09/09 14:34:15;;;;;;;2.25;1.00;;;;;;;;;;605185;236;27111;-63
2022/09/09 14:36:44;;;;;;;2.33;1.08;;;;;;;;;;608520;236;26596;-65
2022/09/09 14:39:13;;;;;;;19.60;2.15;;;;;;;;;;591462;240;26910;-65
2022/09/09 14:41:42;;;;;;;3.00;1.35;;;;;;;;;;601031;236;26658;-66
2022/09/09 14:44:10;;;;;;;3.58;1.30;;;;;;;;;;600589;239;26646;-66
2022/09/09 14:46:39;;;;;;;3.35;1.30;;;;;;;;;;600880;239;26847;-66
2022/09/09 14:49:10;;;;;;;1.87;1.10;;;;;;;;;;600832;239;26650;-65
2022/09/09 14:51:37;;;;;;;2.53;1.37;;;;;;;;;;600617;234;27331;-65
2022/09/09 14:54:06;;;;;;;2.67;1.30;;;;;;;;;;601302;239;26631;-65
2022/09/09 14:56:35;;;;;;;4.87;1.20;;;;;;;;;;601337;239;26848;-65
2022/09/09 14:59:04;;;;;;;5.00;1.52;;;;;;;;;;601339;239;26665;-65
2022/09/09 15:01:33;;;;;;;1.20;1.05;;;;;;;;;;601264;239;26657;-65
2022/09/09 15:04:02;;;;;;;2.67;1.30;;;;;;;;;;601290;239;26650;-65
2022/09/09 15:06:32;;;;;;;2.92;1.25;;;;;;;;;;601345;239;26694;-65
2022/09/09 15:09:00;;;;;;;1.95;0.90;;;;;;;;;;602978;236;26631;-65
2022/09/09 15:11:30;;;;;;;2.40;1.37;;;;;;;;;;608929;236;26679;-65
2022/09/09 15:13:58;;;;;;;2.25;1.10;;;;;;;;;;604455;235;27315;-66
2022/09/09 15:16:26;;;;;;;3.30;1.35;;;;;;;;;;611477;233;26644;-66
2022/09/09 15:18:55;;;;;;;2.70;1.10;;;;;;;;;;607923;235;26856;-67
2022/09/09 15:21:24;;;;;;;2.17;1.55;;;;;;;;;;602152;235;26886;-66
2022/09/09 15:23:53;;;;;;;2.33;1.05;;;;;;;;;;606367;235;26832;-66
2022/09/09 15:26:22;;;;;;;3.40;1.30;;;;;;;;;;610522;235;26592;-66
2022/09/09 15:28:51;;;;;;;2.62;1.30;;;;;;;;;;611095;235;26568;-66
2022/09/09 15:31:20;;;;;;;3.33;1.33;;;;;;;;;;612156;235;26652;-66
2022/09/09 15:33:49;;;;;;;3.65;1.10;;;;;;;;;;610286;236;26596;-66
2022/09/09 15:36:20;;;;;;;2.75;1.20;;;;;;;;;;610165;236;26851;-67
2022/09/09 15:38:49;;;;;;;1.30;0.95;;;;;;;;;;610138;236;26648;-63
2022/09/09 15:41:17;;;;;;;2.37;1.20;;;;;;;;;;607318;236;26902;-63
2022/09/09 15:43:46;;;;;;;0.93;0.93;;;;;;;;;;601604;239;26591;-63
2022/09/09 15:46:30;;;;;;;2.12;1.30;;;;;;;;;;601576;239;26921;-63
2022/09/09 15:48:59;;;;;;;1.08;0.98;;;;;;;;;;597051;239;26893;-63
2022/09/09 15:51:28;;;;;;;1.17;1.08;;;;;;;;;;601111;239;26634;-64
2022/09/09 15:53:58;;;;;;;2.00;1.12;;;;;;;;;;601363;239;26659;-62
2022/09/09 15:56:27;;;;;;;1.80;1.00;;;;;;;;;;601119;239;26645;-63
2022/09/09 15:58:55;;;;;;;2.12;1.10;;;;;;;;;;601310;239;26869;-63
2022/09/09 16:01:24;;;;;;;1.10;1.00;;;;;;;;;;601322;239;26643;-62
2022/09/09 16:03:53;;;;;;;1.87;1.30;;;;;;;;;;601324;239;26639;-62
2022/09/09 16:06:22;;;;;;;2.72;1.10;;;;;;;;;;601333;239;26657;-62
2022/09/09 16:08:52;;;;;;;1.73;1.10;;;;;;;;;;601360;239;26739;-62
2022/09/09 16:11:21;;;;;;;2.42;1.10;;;;;;;;;;601361;239;26636;-62
2022/09/09 16:13:50;;;;;;;1.20;1.10;;;;;;;;;;601344;239;26631;-62
2022/09/09 16:16:19;;;;;;;1.20;1.00;;;;;;;;;;601350;239;26633;-63
2022/09/09 16:18:48;;;;;;;1.00;0.95;;;;;;;;;;601276;239;26681;-63
2022/09/09 16:21:16;;;;;;;1.20;1.15;;;;;;;;;;605096;236;26897;-62
2022/09/09 16:23:45;;;;;;;2.00;1.20;;;;;;;;;;609879;236;26623;-63
2022/09/09 16:26:14;;;;;;;1.33;1.23;;;;;;;;;;609842;236;26840;-63
2022/09/09 16:28:43;;;;;;;3.20;1.17;;;;;;;;;;611588;233;26639;-63
2022/09/09 16:31:12;;;;;;;2.17;1.10;;;;;;;;;;610913;235;26666;-63
2022/09/09 16:33:41;;;;;;;1.10;1.00;;;;;;;;;;610624;235;26594;-63
2022/09/09 16:36:10;;;;;;;1.23;1.00;;;;;;;;;;597603;239;26689;-63
2022/09/09 16:38:39;;;;;;;1.10;1.00;;;;;;;;;;591939;239;26821;-63
2022/09/09 16:41:09;;;;;;;2.12;1.20;;;;;;;;;;599468;239;26621;-63
2022/09/09 16:43:38;;;;;;;2.47;1.30;;;;;;;;;;596901;239;26677;-62
2022/09/09 16:46:13;;;;;;;2.80;1.33;;;;;;;;;;601670;239;26869;-63
2022/09/09 16:48:42;;;;;;;2.30;1.30;;;;;;;;;;599478;239;26624;-63
2022/09/09 16:51:14;;;;;;;3.60;1.40;;;;;;;;;;598739;240;26835;-63
2022/09/09 16:53:43;;;;;;;2.92;1.20;;;;;;;;;;594551;239;26689;-62
2022/09/09 16:56:12;;;;;;;1.77;1.10;;;;;;;;;;590736;243;26967;-62
2022/09/09 16:58:42;;;;;;;1.23;1.00;;;;;;;;;;593920;239;26685;-62
2022/09/09 17:01:13;;;;;;;1.00;1.00;;;;;;;;;;592433;240;26667;-62
2022/09/09 17:03:39;;;;;;;1.20;1.10;;;;;;;;;;591685;239;26635;-63
2022/09/09 17:06:10;;;;;;;3.60;1.35;;;;;;;;;;601242;239;26911;-64
2022/09/09 17:08:39;;;;;;;1.55;1.27;;;;;;;;;;601359;239;26677;-65
2022/09/09 17:11:13;;;;;;;1.45;1.15;;;;;;;;;;598349;239;26903;-64
2022/09/09 17:13:39;;;;;;;2.60;1.20;;;;;;;;;;595094;239;26616;-64
2022/09/09 17:16:08;;;;;;;8.68;2.00;;;;;;;;;;601336;239;26977;-64
2022/09/09 17:18:37;;;;;;;8.60;1.60;;;;;;;;;;593793;234;26611;-64
2022/09/09 17:21:06;;;;;;;2.45;1.30;;;;;;;;;;598476;239;26634;-64
2022/09/09 17:23:37;;;;;;;1.20;1.10;;;;;;;;;;598601;239;26893;-64
2022/09/09 17:26:04;;;;;;;1.67;1.20;;;;;;;;;;598432;240;26693;-64
2022/09/09 17:28:32;;;;;;;3.30;1.48;;;;;;;;;;598578;240;26843;-64
2022/09/09 17:31:03;;;;;;;3.83;1.62;;;;;;;;;;598574;235;26691;-64
2022/09/09 17:33:31;;;;;;;3.15;1.58;;;;;;;;;;598583;240;26699;-64
2022/09/09 17:36:01;;;;;;;3.08;1.60;;;;;;;;;;598581;240;26654;-64
2022/09/09 17:38:28;;;;;;;1.33;1.20;;;;;;;;;;599055;238;26670;-64
2022/09/09 17:41:01;;;;;;;3.33;1.95;;;;;;;;;;611183;235;26877;-64
2022/09/09 17:43:30;;;;;;;3.45;1.85;;;;;;;;;;610908;235;26849;-64
2022/09/09 17:46:07;;;;;;;1.70;1.60;;;;;;;;;;610723;235;26581;-64
2022/09/09 17:48:36;;;;;;;3.10;1.80;;;;;;;;;;610606;235;26835;-64
2022/09/09 17:51:05;;;;;;;6.12;1.75;;;;;;;;;;610422;236;26577;-64
2022/09/09 17:53:37;;;;;;;3.37;1.55;;;;;;;;;;610445;236;27271;-64
2022/09/09 17:56:07;;;;;;;2.00;1.80;;;;;;;;;;610333;236;26588;-64
2022/09/09 17:58:35;;;;;;;3.58;1.65;;;;;;;;;;610085;236;26651;-64
2022/09/09 18:01:05;;;;;;;2.30;1.60;;;;;;;;;;610169;236;26891;-65
2022/09/09 18:03:34;;;;;;;2.62;1.90;;;;;;;;;;610127;236;26641;-65
2022/09/09 18:06:02;;;;;;;1.80;1.70;;;;;;;;;;610141;236;26628;-65
2022/09/09 18:08:31;;;;;;;1.80;1.60;;;;;;;;;;610120;236;26850;-64
2022/09/09 18:11:00;;;;;;;1.40;1.30;;;;;;;;;;610138;236;26635;-64
2022/09/09 18:13:29;;;;;;;1.52;1.30;;;;;;;;;;610176;236;26848;-64
2022/09/09 18:15:58;;;;;;;2.92;1.37;;;;;;;;;;609915;236;26660;-64
2022/09/09 18:18:27;;;;;;;1.17;1.17;;;;;;;;;;609819;236;26577;-64
2022/09/09 18:20:58;;;;;;;3.80;1.60;;;;;;;;;;609848;236;26836;-64
2022/09/09 18:23:27;;;;;;;3.40;1.40;;;;;;;;;;609846;235;26596;-64
2022/09/09 18:25:58;;;;;;;2.60;1.70;;;;;;;;;;609879;236;26926;-64
2022/09/09 18:28:25;;;;;;;1.85;1.60;;;;;;;;;;609681;236;26588;-65
2022/09/09 18:30:54;;;;;;;6.70;1.95;;;;;;;;;;609854;235;26843;-66
2022/09/09 18:33:23;;;;;;;4.15;2.10;;;;;;;;;;609927;236;26589;-66
2022/09/09 18:35:52;;;;;;;5.75;1.83;;;;;;;;;;609936;230;26574;-66
2022/09/09 18:38:20;;;;;;;3.95;2.00;;;;;;;;;;609903;236;26824;-67
2022/09/09 18:40:49;;;;;;;3.92;1.85;;;;;;;;;;609881;236;26585;-67
2022/09/09 18:43:18;;;;;;;2.03;1.60;;;;;;;;;;609855;236;26859;-67
2022/09/09 18:45:47;;;;;;;2.25;1.48;;;;;;;;;;609871;236;26592;-66
2022/09/09 18:48:16;;;;;;;2.78;1.75;;;;;;;;;;609947;236;26837;-66
2022/09/09 18:50:45;;;;;;;2.15;1.90;;;;;;;;;;610870;233;26602;-66
2022/09/09 18:53:14;;;;;;;3.03;1.52;;;;;;;;;;611198;235;26604;-66
2022/09/09 18:55:42;;;;;;;1.40;1.30;;;;;;;;;;610860;235;26680;-65
2022/09/09 18:58:12;;;;;;;2.87;1.67;;;;;;;;;;610751;235;26583;-65
2022/09/09 19:00:40;;;;;;;3.22;1.60;;;;;;;;;;610411;235;26581;-65
2022/09/09 19:03:09;;;;;;;1.65;1.48;;;;;;;;;;610486;236;26616;-65
2022/09/09 19:05:38;;;;;;;1.77;1.52;;;;;;;;;;610537;231;26814;-65
2022/09/09 19:08:07;;;;;;;2.30;1.60;;;;;;;;;;610682;236;26564;-64
2022/09/09 19:10:36;;;;;;;1.55;1.45;;;;;;;;;;610531;236;26635;-64
2022/09/09 19:13:05;;;;;;;1.65;1.30;;;;;;;;;;610541;236;26645;-65
2022/09/09 19:15:35;;;;;;;1.35;1.20;;;;;;;;;;610589;236;26837;-65
2022/09/09 19:18:03;;;;;;;3.22;1.33;;;;;;;;;;610606;236;26854;-65
2022/09/09 19:20:33;;;;;;;1.50;1.40;;;;;;;;;;610440;236;26617;-65
2022/09/09 19:23:02;;;;;;;2.60;1.48;;;;;;;;;;610126;236;26882;-65
2022/09/09 19:25:36;;;;;;;1.55;1.37;;;;;;;;;;607847;233;26653;-66
2022/09/09 19:28:00;;;;;;;1.70;1.52;;;;;;;;;;604579;235;26879;-65
2022/09/09 19:30:37;;;;;;;1.60;1.50;;;;;;;;;;605768;235;26659;-66
2022/09/09 19:33:07;;;;;;;1.20;1.10;;;;;;;;;;603900;234;26687;-63
2022/09/09 19:35:35;;;;;;;1.73;1.37;;;;;;;;;;607329;235;26607;-62
2022/09/09 19:38:04;;;;;;;1.58;1.10;;;;;;;;;;607576;235;26651;-64
2022/09/09 19:40:34;;;;;;;1.10;1.10;;;;;;;;;;610187;236;26645;-64
2022/09/09 19:43:01;;;;;;;3.03;1.50;;;;;;;;;;610001;236;26901;-65
2022/09/09 19:45:30;;;;;;;1.60;1.50;;;;;;;;;;609925;236;26605;-65
2022/09/09 19:47:59;;;;;;;4.28;1.62;;;;;;;;;;609888;236;26611;-65
2022/09/09 19:50:28;;;;;;;1.58;1.37;;;;;;;;;;607770;236;26885;-65
2022/09/09 19:52:58;;;;;;;1.40;1.30;;;;;;;;;;609786;232;26629;-64
2022/09/09 19:55:26;;;;;;;1.42;1.33;;;;;;;;;;605828;236;26868;-64
2022/09/09 19:57:55;;;;;;;1.73;1.33;;;;;;;;;;610229;236;26644;-64
2022/09/09 20:00:24;;;;;;;1.40;1.30;;;;;;;;;;610998;235;26637;-64
2022/09/09 20:02:53;;;;;;;2.35;1.40;;;;;;;;;;594635;237;26896;-64
2022/09/09 20:05:22;;;;;;;1.92;1.35;;;;;;;;;;600030;238;26625;-64
2022/09/09 20:07:50;;;;;;;1.98;1.27;;;;;;;;;;594575;239;26657;-64
2022/09/09 20:10:19;;;;;;;3.00;1.55;;;;;;;;;;599328;239;26672;-64
2022/09/09 20:12:48;;;;;;;2.50;1.33;;;;;;;;;;601909;239;26880;-64
2022/09/09 20:15:16;;;;;;;1.42;1.25;;;;;;;;;;601810;239;26606;-64
2022/09/09 20:17:45;;;;;;;1.20;1.12;;;;;;;;;;601904;239;26881;-64
2022/09/09 20:20:15;;;;;;;1.48;1.37;;;;;;;;;;601785;239;26625;-64
2022/09/09 20:22:43;;;;;;;2.30;1.75;;;;;;;;;;601642;239;26860;-64
2022/09/09 20:25:14;;;;;;;2.65;1.58;;;;;;;;;;601642;239;26700;-65
2022/09/09 20:27:41;;;;;;;1.58;1.10;;;;;;;;;;594214;239;26903;-65
2022/09/09 20:30:11;;;;;;;1.40;1.30;;;;;;;;;;590713;243;26647;-65
2022/09/09 20:32:39;;;;;;;1.17;1.15;;;;;;;;;;590762;243;26722;-65
2022/09/09 20:35:09;;;;;;;2.12;1.27;;;;;;;;;;590712;243;26924;-65
2022/09/09 20:37:37;;;;;;;1.27;1.17;;;;;;;;;;594950;239;26642;-65
2022/09/09 20:40:06;;;;;;;2.08;1.48;;;;;;;;;;598471;240;26915;-65
2022/09/09 20:42:35;;;;;;;1.50;1.40;;;;;;;;;;596941;239;26687;-65
2022/09/09 20:45:04;;;;;;;4.15;1.37;;;;;;;;;;593428;239;26863;-65
2022/09/09 20:47:33;;;;;;;1.90;1.15;;;;;;;;;;595203;240;26635;-64
2022/09/09 20:50:02;;;;;;;1.37;1.27;;;;;;;;;;608528;231;26648;-62
2022/09/09 20:52:31;;;;;;;2.00;1.33;;;;;;;;;;604820;236;26663;-63
2022/09/09 20:55:00;;;;;;;2.58;1.30;;;;;;;;;;602516;236;26944;-62
2022/09/09 20:57:29;;;;;;;2.92;1.60;;;;;;;;;;601888;236;26656;-63
2022/09/09 20:59:58;;;;;;;4.78;1.77;;;;;;;;;;606310;236;26855;-68
2022/09/09 21:02:26;;;;;;;13.10;2.65;;;;;;;;;;601933;236;26652;-67
2022/09/09 21:04:56;;;;;;;7.37;1.90;;;;;;;;;;607180;235;26589;-68
2022/09/09 21:07:25;;;;;;;6.78;2.42;;;;;;;;;;606363;235;26688;-67
2022/09/09 21:09:56;;;;;;;3.28;1.70;;;;;;;;;;597167;239;26661;-67
2022/09/09 21:12:23;;;;;;;3.62;1.62;;;;;;;;;;590494;243;26618;-67
2022/09/09 21:14:51;;;;;;;1.55;1.45;;;;;;;;;;600554;238;26676;-67
2022/09/09 21:17:20;;;;;;;2.37;1.55;;;;;;;;;;602457;239;26616;-67
2022/09/09 21:19:49;;;;;;;3.22;1.50;;;;;;;;;;602235;239;26898;-67
2022/09/09 21:22:18;;;;;;;2.87;1.65;;;;;;;;;;602083;239;26644;-66
2022/09/09 21:24:47;;;;;;;2.95;1.60;;;;;;;;;;599630;239;26640;-66
2022/09/09 21:27:16;;;;;;;3.25;1.48;;;;;;;;;;598712;239;26872;-67
2022/09/09 21:29:46;;;;;;;2.50;1.75;;;;;;;;;;596624;239;26666;-66
2022/09/09 21:32:14;;;;;;;2.00;1.42;;;;;;;;;;592436;239;26908;-67
2022/09/09 21:34:44;;;;;;;2.37;1.55;;;;;;;;;;601173;239;26685;-67
2022/09/09 21:37:13;;;;;;;1.48;1.37;;;;;;;;;;598842;240;27301;-67
2022/09/09 21:39:41;;;;;;;2.80;1.30;;;;;;;;;;598843;239;26619;-66
2022/09/09 21:42:10;;;;;;;1.45;1.35;;;;;;;;;;598796;240;26610;-66
2022/09/09 21:44:39;;;;;;;1.80;1.52;;;;;;;;;;597834;240;26623;-66
2022/09/09 21:47:08;;;;;;;2.28;1.48;;;;;;;;;;590714;243;26664;-66
2022/09/09 21:49:36;;;;;;;1.90;1.60;;;;;;;;;;590664;243;26875;-66
2022/09/09 21:52:05;;;;;;;1.52;1.42;;;;;;;;;;594293;239;26652;-66
2022/09/09 21:54:37;;;;;;;1.58;1.48;;;;;;;;;;593659;239;26841;-66
2022/09/09 21:57:03;;;;;;;1.73;1.40;;;;;;;;;;590404;239;26627;-66
2022/09/09 21:59:32;;;;;;;1.50;1.40;;;;;;;;;;599243;239;26699;-66
2022/09/09 22:02:01;;;;;;;1.65;1.55;;;;;;;;;;596154;239;26600;-66
2022/09/09 22:04:29;;;;;;;2.97;1.67;;;;;;;;;;601294;239;26673;-67
2022/09/09 22:06:58;;;;;;;2.10;1.65;;;;;;;;;;598758;239;26667;-66
2022/09/09 22:09:27;;;;;;;1.83;1.40;;;;;;;;;;609880;235;26585;-67
2022/09/09 22:11:56;;;;;;;3.80;1.65;;;;;;;;;;609927;236;26843;-67
2022/09/09 22:14:26;;;;;;;2.08;1.37;;;;;;;;;;609816;236;26603;-66
2022/09/09 22:16:54;;;;;;;1.62;1.50;;;;;;;;;;605685;235;26860;-66
2022/09/09 22:19:22;;;;;;;2.60;1.62;;;;;;;;;;606402;236;26620;-66
2022/09/09 22:21:51;;;;;;;1.62;1.52;;;;;;;;;;601274;239;26681;-66
2022/09/09 22:24:20;;;;;;;1.45;1.30;;;;;;;;;;608418;233;26639;-66
2022/09/09 22:26:50;;;;;;;2.22;1.30;;;;;;;;;;611839;235;26682;-66
2022/09/09 22:29:18;;;;;;;1.52;1.42;;;;;;;;;;611287;235;26865;-66
2022/09/09 22:31:47;;;;;;;1.40;1.30;;;;;;;;;;611125;235;26605;-66
2022/09/09 22:34:16;;;;;;;1.73;1.25;;;;;;;;;;610936;235;26908;-66
2022/09/09 22:36:44;;;;;;;1.83;1.40;;;;;;;;;;610495;235;26584;-66
2022/09/09 22:39:13;;;;;;;2.05;1.42;;;;;;;;;;610470;236;26802;-66
2022/09/09 22:41:43;;;;;;;1.42;1.20;;;;;;;;;;610422;235;26628;-66
2022/09/09 22:44:13;;;;;;;1.55;1.45;;;;;;;;;;610269;236;26651;-66
2022/09/09 22:46:40;;;;;;;2.03;1.40;;;;;;;;;;602238;234;26826;-66
2022/09/09 22:49:09;;;;;;;1.50;1.35;;;;;;;;;;601658;239;26585;-67
2022/09/09 22:51:38;;;;;;;1.45;1.35;;;;;;;;;;601629;239;26832;-67
2022/09/09 22:54:07;;;;;;;1.50;1.40;;;;;;;;;;601627;239;26651;-66
2022/09/09 22:56:36;;;;;;;1.60;1.50;;;;;;;;;;601656;239;26585;-67
2022/09/09 22:59:05;;;;;;;1.67;1.55;;;;;;;;;;601701;239;26592;-66
2022/09/09 23:01:34;;;;;;;1.80;1.48;;;;;;;;;;601413;239;26643;-67
2022/09/09 23:04:03;;;;;;;1.60;1.50;;;;;;;;;;601327;239;26907;-66
2022/09/09 23:06:32;;;;;;;1.70;1.60;;;;;;;;;;601378;239;26645;-66
2022/09/09 23:09:00;;;;;;;1.83;1.48;;;;;;;;;;607904;236;26831;-67
2022/09/09 23:11:29;;;;;;;1.27;1.20;;;;;;;;;;609438;236;26668;-66
2022/09/09 23:13:59;;;;;;;2.47;1.75;;;;;;;;;;607919;236;26835;-66
2022/09/09 23:16:28;;;;;;;1.33;1.30;;;;;;;;;;606050;236;26602;-66
2022/09/09 23:18:56;;;;;;;1.33;1.23;;;;;;;;;;605233;236;26645;-67
2022/09/09 23:21:27;;;;;;;1.35;1.25;;;;;;;;;;611988;235;26823;-66
2022/09/09 23:23:54;;;;;;;2.50;1.52;;;;;;;;;;611484;235;26668;-66
2022/09/09 23:26:23;;;;;;;1.45;1.40;;;;;;;;;;608768;235;26588;-66
2022/09/09 23:28:52;;;;;;;1.75;1.65;;;;;;;;;;608861;235;26640;-66
2022/09/09 23:31:21;;;;;;;1.55;1.45;;;;;;;;;;609365;235;26646;-66
2022/09/09 23:33:49;;;;;;;1.45;1.35;;;;;;;;;;609465;236;26853;-66
2022/09/09 23:36:18;;;;;;;1.40;1.30;;;;;;;;;;607020;233;26601;-66
2022/09/09 23:38:47;;;;;;;1.52;1.40;;;;;;;;;;610313;235;27493;-67
2022/09/09 23:41:18;;;;;;;1.50;1.40;;;;;;;;;;607099;234;26672;-66
2022/09/09 23:43:45;;;;;;;2.97;1.60;;;;;;;;;;608195;235;26561;-66
2022/09/09 23:46:14;;;;;;;1.33;1.23;;;;;;;;;;602017;235;26821;-66
2022/09/09 23:48:42;;;;;;;1.80;1.35;;;;;;;;;;607149;235;26589;-66
2022/09/09 23:51:16;;;;;;;1.50;1.30;;;;;;;;;;610995;235;26556;-66
2022/09/09 23:53:41;;;;;;;1.52;1.40;;;;;;;;;;609570;235;26612;-66
2022/09/09 23:56:09;;;;;;;1.70;1.35;;;;;;;;;;605185;236;26805;-66
2022/09/09 23:58:38;;;;;;;1.70;1.20;;;;;;;;;;608521;236;26611;-67
